Time,TemperatureF,DewpointF,PressureIn,WindDirection,WindDirectionDegrees,WindSpeedMPH,WindSpeedGustMPH,Humidity,HourlyPrecipIn,Conditions,Clouds,dailyrainin,SolarRadiationWatts/m^2,SoftwareType,DateUTC
2013-11-08 00:22:00,49.0,43.0,-100.00,West,277,3.0,9.0,78,-99.99,,,0.02,0.120000,,2013-11-08 08:22:00,
2013-11-08 00:32:00,49.0,43.0,-100.00,West,277,3.0,9.0,78,-99.99,,,0.02,0.120000,,2013-11-08 08:32:00,
2013-11-08 00:42:00,49.0,43.0,-100.00,West,277,3.0,9.0,78,-99.99,,,0.02,0.120000,,2013-11-08 08:42:00,
2013-11-08 01:22:00,48.0,43.0,-100.00,NNW,327,2.0,4.0,85,-99.99,,,0.01,0.000000,,2013-11-08 09:22:00,
2013-11-08 01:33:00,48.0,43.0,-100.00,NNW,327,2.0,4.0,85,-99.99,,,0.01,0.000000,,2013-11-08 09:33:00,
2013-11-08 01:43:00,48.0,43.0,-100.00,NNW,327,2.0,4.0,85,-99.99,,,0.01,0.000000,,2013-11-08 09:43:00,
2013-11-08 02:23:00,47.0,44.0,-100.00,NW,308,2.0,9.0,89,-99.99,,,0.01,0.000000,,2013-11-08 10:23:00,
2013-11-08 02:33:00,47.0,44.0,-100.00,NW,308,2.0,9.0,89,-99.99,,,0.01,0.000000,,2013-11-08 10:33:00,
2013-11-08 02:42:00,47.0,44.0,-100.00,NW,308,2.0,9.0,89,-99.99,,,0.01,0.000000,,2013-11-08 10:42:00,
2013-11-08 03:12:00,50.0,39.0,-100.00,West,268,5.0,12.0,66,-99.99,,,0.01,0.000000,,2013-11-08 11:12:00,
2013-11-08 03:22:00,50.0,39.0,-100.00,West,268,5.0,12.0,66,-99.99,,,0.01,0.000000,,2013-11-08 11:22:00,
2013-11-08 03:33:00,50.0,39.0,-100.00,West,268,5.0,12.0,66,-99.99,,,0.01,0.000000,,2013-11-08 11:33:00,
2013-11-08 03:42:00,50.0,39.0,-100.00,West,268,5.0,12.0,66,-99.99,,,0.01,0.000000,,2013-11-08 11:42:00,
2013-11-08 04:11:00,49.0,42.0,-100.00,NW,317,4.0,7.0,77,-99.99,,,-99.99,0.000000,,2013-11-08 12:11:00,
2013-11-08 04:21:00,49.0,42.0,-100.00,NW,317,4.0,7.0,77,-99.99,,,-99.99,0.000000,,2013-11-08 12:21:00,
2013-11-08 04:32:00,49.0,42.0,-100.00,NW,317,4.0,7.0,77,-99.99,,,-99.99,0.000000,,2013-11-08 12:32:00,
2013-11-08 04:42:00,49.0,42.0,-100.00,NW,317,4.0,7.0,77,-99.99,,,-99.99,0.000000,,2013-11-08 12:42:00,
2013-11-08 05:21:00,47.0,43.0,-100.00,North,3,2.0,5.0,82,-99.99,,,-99.99,0.120000,,2013-11-08 13:21:00,
2013-11-08 05:32:00,47.0,43.0,-100.00,North,3,2.0,5.0,82,-99.99,,,-99.99,0.120000,,2013-11-08 13:32:00,
2013-11-08 05:42:00,47.0,43.0,-100.00,North,3,2.0,5.0,82,-99.99,,,-99.99,0.120000,,2013-11-08 13:42:00,
2013-11-08 06:21:00,47.0,43.0,-100.00,North,355,1.0,4.0,87,-99.99,,,-99.99,0.120000,,2013-11-08 14:21:00,
2013-11-08 06:32:00,47.0,43.0,-100.00,North,355,1.0,4.0,87,-99.99,,,-99.99,0.120000,,2013-11-08 14:32:00,
2013-11-08 06:42:00,47.0,43.0,-100.00,North,355,1.0,4.0,87,-99.99,,,-99.99,0.120000,,2013-11-08 14:42:00,
2013-11-08 07:22:00,46.0,44.0,-100.00,NNW,329,2.0,4.0,93,-99.99,,,-99.99,0.120000,,2013-11-08 15:22:00,
2013-11-08 07:33:00,46.0,44.0,-100.00,NNW,329,2.0,4.0,93,-99.99,,,-99.99,0.120000,,2013-11-08 15:33:00,
2013-11-08 07:43:00,46.0,44.0,-100.00,NNW,329,2.0,4.0,93,-99.99,,,-99.99,0.120000,,2013-11-08 15:43:00,
2013-11-08 08:23:00,46.0,42.0,-100.00,NNW,338,2.0,3.0,86,-99.99,,,-99.99,0.120000,,2013-11-08 16:23:00,
2013-11-08 08:33:00,46.0,42.0,-100.00,NNW,338,2.0,3.0,86,-99.99,,,-99.99,0.120000,,2013-11-08 16:33:00,
2013-11-08 08:42:00,46.0,42.0,-100.00,NNW,338,2.0,3.0,86,-99.99,,,-99.99,0.120000,,2013-11-08 16:42:00,
2013-11-08 09:22:00,46.0,42.0,-100.00,South,181,1.0,4.0,87,-99.99,,,-99.99,24.170000,,2013-11-08 17:22:00,
2013-11-08 09:33:00,46.0,42.0,-100.00,South,181,1.0,4.0,87,-99.99,,,-99.99,24.170000,,2013-11-08 17:33:00,
2013-11-08 09:43:00,46.0,42.0,-100.00,South,181,1.0,4.0,87,-99.99,,,-99.99,24.170000,,2013-11-08 17:43:00,
2013-11-08 10:22:00,47.0,44.0,-100.00,NNE,25,1.0,4.0,87,-99.99,,,-99.99,94.599998,,2013-11-08 18:22:00,
2013-11-08 10:33:00,47.0,44.0,-100.00,NNE,25,1.0,4.0,87,-99.99,,,-99.99,94.599998,,2013-11-08 18:33:00,
2013-11-08 10:42:00,47.0,44.0,-100.00,NNE,25,1.0,4.0,87,-99.99,,,-99.99,94.599998,,2013-11-08 18:42:00,
2013-11-08 11:00:00,51.0,43.0,-100.00,NNE,26,3.0,4.0,74,-99.99,,,-99.99,157.830002,,2013-11-08 19:00:00,
2013-11-08 11:42:00,51.0,43.0,-100.00,NNE,26,3.0,4.0,74,-99.99,,,-99.99,157.830002,,2013-11-08 19:42:00,
2013-11-08 11:52:00,51.0,43.0,-100.00,NNE,26,3.0,4.0,74,-99.99,,,-99.99,157.830002,,2013-11-08 19:52:00,
2013-11-08 12:22:00,52.0,43.0,-100.00,North,1,2.0,5.0,71,-99.99,,,-99.99,263.700012,,2013-11-08 20:22:00,
2013-11-08 12:32:00,52.0,43.0,-100.00,North,1,2.0,5.0,71,-99.99,,,-99.99,263.700012,,2013-11-08 20:32:00,
2013-11-08 12:42:00,52.0,43.0,-100.00,North,1,2.0,5.0,71,-99.99,,,-99.99,263.700012,,2013-11-08 20:42:00,
2013-11-08 13:22:00,53.0,40.0,-100.00,SSE,165,1.0,4.0,61,-99.99,,,-99.99,200.009995,,2013-11-08 21:22:00,
2013-11-08 13:33:00,53.0,40.0,-100.00,SSE,165,1.0,4.0,61,-99.99,,,-99.99,200.009995,,2013-11-08 21:33:00,
2013-11-08 13:44:00,53.0,40.0,-100.00,SSE,165,1.0,4.0,61,-99.99,,,-99.99,200.009995,,2013-11-08 21:44:00,
2013-11-08 14:23:00,52.0,41.0,-100.00,NNE,31,2.0,4.0,67,-99.99,,,-99.99,84.139999,,2013-11-08 22:23:00,
2013-11-08 14:32:00,52.0,41.0,-100.00,NNE,31,2.0,4.0,67,-99.99,,,-99.99,84.139999,,2013-11-08 22:32:00,
2013-11-08 14:43:00,52.0,41.0,-100.00,NNE,31,2.0,4.0,67,-99.99,,,-99.99,84.139999,,2013-11-08 22:43:00,
2013-11-08 15:12:00,51.0,42.0,-100.00,NNW,343,3.0,5.0,71,-99.99,,,-99.99,75.540001,,2013-11-08 23:12:00,
2013-11-08 15:22:00,51.0,42.0,-100.00,NNW,343,3.0,5.0,71,-99.99,,,-99.99,75.540001,,2013-11-08 23:22:00,
2013-11-08 15:34:00,51.0,42.0,-100.00,NNW,343,3.0,5.0,71,-99.99,,,-99.99,75.540001,,2013-11-08 23:34:00,
2013-11-08 15:42:00,51.0,42.0,-100.00,NNW,343,3.0,5.0,71,-99.99,,,-99.99,75.540001,,2013-11-08 23:42:00,